Time;durP1;ratioP1;P1;durP2;ratioP2;P2;SDS_P1;SDS_P2;PMS_P1;PMS_P2;Temp;Humidity;BMP_temperature;BMP_pressure;BME280_temperature;BME280_humidity;BME280_pressure;Samples;Min_cycle;Max_cycle;Signal;HPM_P1;HPM_P2
2021/07/30 00:02:19;;;;;;;1.53;1.30;;;22.40;99.90;;;22.72;53.86;100739.19;4927126;28;105897;-46
2021/07/30 00:04:46;;;;;;;1.67;1.37;;;22.50;99.90;;;22.73;53.92;100731.00;4917590;28;97734;-46
2021/07/30 00:07:12;;;;;;;1.20;1.03;;;22.50;99.90;;;22.75;53.87;100729.03;4917912;28;98559;-49
2021/07/30 00:09:38;;;;;;;1.30;1.20;;;22.50;99.90;;;22.77;53.76;100727.06;4930543;28;96890;-47
2021/07/30 00:12:06;;;;;;;1.73;1.40;;;22.60;99.90;;;22.78;53.64;100730.59;4930112;28;100685;-45
2021/07/30 00:14:32;;;;;;;1.37;1.27;;;22.50;99.90;;;22.77;53.68;100732.44;4946074;28;98569;-46
2021/07/30 00:16:58;;;;;;;1.67;1.57;;;22.50;99.90;;;22.76;53.89;100721.81;4945524;28;99326;-45
2021/07/30 00:19:24;;;;;;;1.80;1.40;;;22.50;99.90;;;22.79;53.73;100730.47;4947536;28;98542;-44
2021/07/30 00:21:50;;;;;;;1.30;1.00;;;22.50;99.90;;;22.82;53.60;100730.22;4943971;28;100286;-46
2021/07/30 00:24:16;;;;;;;1.50;1.40;;;22.60;99.90;;;22.85;53.58;100737.19;4927333;28;103125;-45
2021/07/30 00:26:43;;;;;;;1.67;1.57;;;22.60;99.90;;;22.84;53.40;100728.25;4920720;28;98120;-44
2021/07/30 00:29:09;;;;;;;1.33;1.23;;;22.70;99.90;;;22.90;53.54;100736.81;4920881;28;98499;-45
2021/07/30 00:31:35;;;;;;;1.67;1.50;;;22.70;99.90;;;22.90;53.65;100726.03;4904918;28;99260;-46
2021/07/30 00:34:00;;;;;;;2.30;2.03;;;22.70;99.90;;;22.91;53.32;100738.50;4919852;28;100210;-46
2021/07/30 00:36:26;;;;;;;1.53;1.40;;;22.70;99.90;;;22.90;53.58;100736.81;4929603;28;107890;-47
2021/07/30 00:38:52;;;;;;;1.67;1.30;;;22.70;99.90;;;22.89;53.64;100746.69;4924347;28;97129;-46
2021/07/30 00:41:18;;;;;;;1.60;1.50;;;22.60;99.90;;;22.91;53.52;100738.50;4896029;28;97502;-45
2021/07/30 00:43:44;;;;;;;1.30;1.20;;;22.60;99.90;;;22.89;53.64;100735.09;4911125;28;98123;-45
2021/07/30 00:46:10;;;;;;;1.40;1.30;;;22.70;99.90;;;22.89;53.75;100729.72;4926279;28;99840;-47
2021/07/30 00:48:37;;;;;;;1.30;1.20;;;22.60;99.90;;;22.92;53.64;100726.75;4926466;28;100773;-44
2021/07/30 00:51:03;;;;;;;1.43;1.30;;;22.70;99.90;;;22.94;53.56;100722.94;4908038;28;97594;-44
2021/07/30 00:53:29;;;;;;;1.77;1.40;;;22.70;99.90;;;22.96;53.41;100725.50;4912258;28;97305;-44
2021/07/30 00:55:58;;;;;;;1.57;1.30;;;22.70;99.90;;;23.00;53.41;100729.63;4905481;28;100224;-45
2021/07/30 00:58:27;;;;;;;2.80;1.47;;;22.80;99.90;;;23.01;53.14;100731.34;4926083;28;97842;-45
2021/07/30 01:00:54;;;;;;;1.30;1.20;;;22.80;99.90;;;23.00;53.34;100729.63;4925726;28;99921;-45
2021/07/30 01:03:20;;;;;;;1.50;1.40;;;22.80;99.90;;;23.00;53.40;100727.81;4932077;28;100827;-46
2021/07/30 01:05:46;;;;;;;1.83;1.43;;;22.80;99.90;;;23.00;53.37;100737.69;4927652;28;99966;-45
2021/07/30 01:08:13;;;;;;;2.27;1.53;;;22.80;99.90;;;22.97;53.37;100737.97;4949044;28;98547;-44
2021/07/30 01:10:39;;;;;;;1.83;1.37;;;22.70;99.90;;;22.99;53.38;100735.97;4919339;28;98167;-43
2021/07/30 01:13:04;;;;;;;2.47;1.53;;;22.80;99.90;;;22.99;53.44;100730.59;4909136;28;97387;-44
2021/07/30 01:15:31;;;;;;;1.83;1.53;;;22.80;99.90;;;22.99;53.35;100731.47;4910582;28;97637;-44
2021/07/30 01:17:56;;;;;;;1.57;1.30;;;22.80;99.90;;;23.01;53.36;100717.91;4910512;28;99075;-45
2021/07/30 01:20:25;;;;;;;1.50;1.40;;;22.90;99.90;;;23.02;53.30;100725.00;4926961;28;98559;-46
2021/07/30 01:22:57;;;;;;;2.60;1.70;;;22.90;99.90;;;23.03;53.26;100715.94;4939717;28;97776;-45
2021/07/30 01:25:25;;;;;;;2.10;1.43;;;22.90;99.90;;;23.03;53.24;100722.16;4931102;28;100127;-45
2021/07/30 01:27:52;;;;;;;1.73;1.60;;;22.90;99.90;;;23.02;53.31;100708.84;4909813;28;98393;-46
2021/07/30 01:30:21;;;;;;;2.87;2.00;;;22.90;99.90;;;23.01;53.36;100712.53;4935302;28;97894;-45
2021/07/30 01:32:48;;;;;;;1.70;1.60;;;22.80;99.90;;;23.01;53.30;100717.91;4913636;28;98578;-44
2021/07/30 01:35:14;;;;;;;1.83;1.47;;;22.90;99.90;;;23.01;53.36;100707.16;4911368;28;96991;-46
2021/07/30 01:37:40;;;;;;;1.90;1.67;;;22.90;99.90;;;23.00;53.44;100710.78;4923916;28;99167;-50
2021/07/30 01:40:07;;;;;;;1.60;1.50;;;22.80;99.90;;;23.00;53.54;100713.47;4906920;28;99239;-44
2021/07/30 01:42:33;;;;;;;1.97;1.67;;;22.80;99.90;;;22.99;53.42;100706.41;4911933;28;97604;-44
2021/07/30 01:44:59;;;;;;;1.90;1.60;;;22.80;99.90;;;23.02;53.48;100708.84;4906377;28;99496;-44
2021/07/30 01:47:27;;;;;;;1.70;1.60;;;22.80;99.90;;;23.02;53.47;100709.69;4910902;28;105108;-46
2021/07/30 01:49:53;;;;;;;1.77;1.67;;;22.90;99.90;;;23.03;53.43;100706.03;4889557;28;97172;-46
2021/07/30 01:52:19;;;;;;;1.30;1.20;;;22.90;99.90;;;23.04;53.36;100706.88;4909623;28;103808;-47
2021/07/30 01:54:46;;;;;;;2.10;1.33;;;22.90;99.90;;;23.06;53.22;100707.59;4906991;28;100919;-45
2021/07/30 01:57:12;;;;;;;1.97;1.77;;;22.90;99.90;;;23.08;53.26;100713.69;4908929;28;99536;-45
2021/07/30 01:59:40;;;;;;;2.23;1.40;;;22.90;99.90;;;23.08;53.19;100697.53;4923427;28;98565;-44
2021/07/30 02:02:06;;;;;;;1.70;1.60;;;23.00;99.90;;;23.09;53.16;100699.25;4905668;28;99456;-45
2021/07/30 02:04:32;;;;;;;2.07;1.87;;;22.90;99.90;;;23.08;53.25;100693.00;4923812;28;98494;-47
2021/07/30 02:06:58;;;;;;;1.63;1.50;;;22.90;99.90;;;23.11;53.28;100702.66;4907879;28;98197;-45
2021/07/30 02:09:24;;;;;;;1.77;1.67;;;23.00;99.90;;;23.11;53.28;100703.50;4905397;28;98072;-47
2021/07/30 02:11:51;;;;;;;1.50;1.40;;;23.00;99.90;;;23.12;53.43;100694.44;4913005;28;115330;-45
2021/07/30 02:14:17;;;;;;;1.83;1.57;;;23.00;99.90;;;23.12;53.23;100693.59;4908094;28;98393;-44
2021/07/30 02:16:50;;;;;;;2.60;1.70;;;23.00;99.90;;;23.11;53.18;100691.88;4910421;28;98597;-44
2021/07/30 02:19:18;;;;;;;1.80;1.60;;;23.00;99.90;;;23.12;53.19;100685.50;4927918;28;97592;-45
2021/07/30 02:21:45;;;;;;;2.53;2.00;;;23.00;99.90;;;23.13;53.28;100689.91;4949480;28;97679;-46
2021/07/30 02:24:10;;;;;;;1.80;1.70;;;23.00;99.90;;;23.13;53.21;100689.91;4942862;28;98352;-45
2021/07/30 02:26:37;;;;;;;2.30;1.40;;;23.00;99.90;;;23.12;53.36;100683.69;4932772;28;120753;-45
2021/07/30 02:29:04;;;;;;;2.10;1.90;;;23.00;99.90;;;23.12;53.08;100678.28;4944769;28;97512;-47
2021/07/30 02:31:30;;;;;;;3.60;2.20;;;23.00;99.90;;;23.12;53.28;100683.69;4944789;28;97425;-44
2021/07/30 02:33:56;;;;;;;1.50;1.40;;;23.00;99.90;;;23.12;53.11;100677.44;4948061;28;97701;-47
2021/07/30 02:36:22;;;;;;;3.17;1.90;;;23.00;99.90;;;23.11;53.17;100684.66;4959499;28;108824;-44
2021/07/30 02:38:48;;;;;;;1.80;1.70;;;23.00;99.90;;;23.02;53.60;100677.41;4961618;28;97509;-44
2021/07/30 02:41:16;;;;;;;1.77;1.67;;;22.90;99.90;;;23.02;53.38;100682.78;4965531;28;100548;-45
2021/07/30 02:43:43;;;;;;;2.00;1.40;;;22.80;99.90;;;23.01;53.61;100674.88;4963022;28;100896;-44
2021/07/30 02:46:09;;;;;;;1.70;1.50;;;22.80;99.90;;;22.98;53.39;100686.72;4943969;28;98107;-45
2021/07/30 02:48:35;;;;;;;1.80;1.70;;;22.80;99.90;;;22.96;53.72;100679.78;4968600;28;97439;-45
2021/07/30 02:51:02;;;;;;;1.50;1.40;;;22.80;99.90;;;22.91;53.81;100674.81;4956802;28;104992;-44
2021/07/30 02:53:28;;;;;;;1.80;1.70;;;22.60;99.90;;;22.91;53.72;100673.97;4954288;28;100505;-44
2021/07/30 02:55:54;;;;;;;1.70;1.60;;;22.60;99.90;;;22.92;53.83;100681.03;4944899;28;97528;-46
2021/07/30 02:58:20;;;;;;;1.70;1.60;;;22.70;99.90;;;22.93;53.75;100666.59;4948236;28;97438;-46
2021/07/30 03:00:46;;;;;;;1.93;1.60;;;22.70;99.90;;;22.95;53.60;100667.31;4940379;28;97123;-44
2021/07/30 03:03:12;;;;;;;2.33;1.80;;;22.80;99.90;;;22.95;53.76;100664.63;4947070;28;97154;-44
2021/07/30 03:05:38;;;;;;;2.07;1.60;;;22.80;99.90;;;22.96;53.64;100671.72;4932790;28;98228;-44
2021/07/30 03:08:04;;;;;;;2.40;1.60;;;22.80;99.90;;;22.96;53.53;100669.88;4931104;28;97287;-45
2021/07/30 03:10:30;;;;;;;2.50;1.90;;;22.80;99.90;;;22.97;53.71;100676.09;4943801;28;97159;-49
2021/07/30 03:12:55;;;;;;;1.67;1.57;;;22.80;99.90;;;22.99;53.61;100676.81;4943014;28;124604;-44
2021/07/30 03:15:21;;;;;;;1.70;1.60;;;22.80;99.90;;;22.98;53.61;100667.88;4938820;28;109430;-44
2021/07/30 03:17:47;;;;;;;1.73;1.50;;;22.80;99.90;;;23.00;53.67;100667.75;4943672;28;97496;-46
2021/07/30 03:20:13;;;;;;;2.13;1.70;;;22.80;99.90;;;22.98;53.76;100667.88;4951623;28;110261;-46
2021/07/30 03:22:39;;;;;;;1.87;1.60;;;22.80;99.90;;;22.98;53.71;100658.97;4928944;28;97347;-44
2021/07/30 03:25:06;;;;;;;2.30;1.57;;;22.80;99.90;;;22.97;53.85;100654.59;4932310;28;102248;-45
2021/07/30 03:27:31;;;;;;;1.67;1.53;;;22.80;99.90;;;22.97;53.75;100657.28;4945100;28;97198;-47
2021/07/30 03:29:58;;;;;;;1.80;1.70;;;22.80;99.90;;;22.97;53.71;100659.97;4934338;28;97545;-48
2021/07/30 03:32:23;;;;;;;1.77;1.40;;;22.80;99.90;;;22.98;53.72;100664.34;4930836;28;105029;-45
2021/07/30 03:34:49;;;;;;;2.13;1.60;;;22.80;99.90;;;22.97;53.71;100658.13;4932829;28;100454;-44
2021/07/30 03:37:15;;;;;;;1.90;1.53;;;22.80;99.90;;;22.98;53.64;100653.59;4944990;28;105985;-45
2021/07/30 03:39:41;;;;;;;1.77;1.67;;;22.80;99.90;;;22.98;53.61;100653.59;4948034;28;98187;-49
2021/07/30 03:42:08;;;;;;;1.70;1.50;;;22.80;99.90;;;22.96;53.70;100653.72;4945841;28;97170;-44
2021/07/30 03:44:36;;;;;;;2.00;1.83;;;22.80;99.90;;;22.96;53.71;100661.81;4949651;28;98439;-44
2021/07/30 03:47:03;;;;;;;2.43;1.77;;;22.80;99.90;;;22.95;53.91;100654.72;4944125;28;98385;-44
2021/07/30 03:49:28;;;;;;;2.07;1.57;;;22.70;99.90;;;22.93;53.95;100656.69;4933752;28;96902;-46
2021/07/30 03:51:54;;;;;;;1.97;1.60;;;22.70;99.90;;;22.90;53.96;100659.66;4938671;28;105613;-45
2021/07/30 03:54:20;;;;;;;4.10;3.13;;;22.60;99.90;;;22.85;53.65;100660.03;4943380;28;97488;-44
2021/07/30 03:56:46;;;;;;;1.87;1.77;;;22.60;99.90;;;22.77;54.04;100662.53;4943180;28;96934;-45
2021/07/30 03:59:12;;;;;;;3.40;2.53;;;22.40;99.90;;;22.72;54.39;100662.09;4938554;28;97851;-45
2021/07/30 04:01:47;;;;;;;2.43;2.13;;;22.40;99.90;;;22.72;54.45;100658.53;4952416;28;97342;-44
2021/07/30 04:04:16;;;;;;;2.03;1.83;;;22.40;99.90;;;22.69;54.57;100651.56;4931231;28;102141;-46
2021/07/30 04:06:44;;;;;;;2.33;1.47;;;22.40;99.90;;;22.69;54.52;100654.25;4946262;28;96795;-44
2021/07/30 04:09:12;;;;;;;4.77;3.17;;;22.40;99.90;;;22.72;54.47;100658.53;4945850;28;97039;-45
2021/07/30 04:11:38;;;;;;;1.83;1.50;;;22.40;99.90;;;22.68;54.64;100652.56;4937584;28;97010;-45
2021/07/30 04:14:07;;;;;;;3.90;2.23;;;22.40;99.90;;;22.68;54.36;100655.25;4944368;28;97532;-45
2021/07/30 04:16:35;;;;;;;2.33;1.93;;;22.40;99.90;;;22.69;54.49;100648.88;4947683;28;96973;-46
2021/07/30 04:19:06;;;;;;;1.97;1.70;;;22.40;99.90;;;22.71;54.44;100643.38;4928299;28;103078;-44
2021/07/30 04:21:31;;;;;;;1.90;1.73;;;22.40;99.90;;;22.71;54.38;100651.44;4960234;28;96770;-45
2021/07/30 04:24:09;;;;;;;2.03;1.80;;;22.50;99.90;;;22.67;54.50;100650.84;4951045;28;97369;-45
2021/07/30 04:26:35;;;;;;;2.23;1.77;;;22.40;99.90;;;22.59;54.74;100653.38;4950397;28;97735;-46
2021/07/30 04:29:01;;;;;;;1.83;1.60;;;22.30;99.90;;;22.60;54.79;100648.84;4943641;28;97525;-45
2021/07/30 04:31:26;;;;;;;1.73;1.63;;;22.30;99.90;;;22.55;54.82;100646.53;4929841;28;101500;-43
2021/07/30 04:33:52;;;;;;;3.83;2.43;;;22.20;99.90;;;22.53;54.36;100659.25;4942361;28;97056;-46
2021/07/30 04:36:18;;;;;;;4.43;2.73;;;22.20;99.90;;;22.52;54.95;100655.72;4948584;28;97684;-44
2021/07/30 04:38:44;;;;;;;2.20;2.00;;;22.20;99.90;;;22.54;54.84;100653.75;4930606;28;97662;-44
2021/07/30 04:41:11;;;;;;;1.80;1.70;;;22.20;99.90;;;22.56;54.97;100648.22;4928670;28;97425;-44
2021/07/30 04:43:37;;;;;;;1.90;1.80;;;22.30;99.90;;;22.59;54.90;100647.13;4947070;28;97198;-46
2021/07/30 04:46:03;;;;;;;1.87;1.60;;;22.30;99.90;;;22.60;54.87;100652.38;4942628;28;96847;-44
2021/07/30 04:48:29;;;;;;;1.43;1.30;;;22.40;99.90;;;22.65;54.80;100651.97;4968756;28;97036;-46
2021/07/30 04:50:55;;;;;;;1.70;1.47;;;22.40;99.90;;;22.67;54.45;100648.16;4959488;28;97989;-45
2021/07/30 04:53:20;;;;;;;1.90;1.70;;;22.50;99.90;;;22.69;54.68;100648.03;4952175;28;97190;-44
2021/07/30 04:55:46;;;;;;;1.43;1.33;;;22.50;99.90;;;22.69;54.43;100643.50;4958129;28;97182;-45
2021/07/30 04:58:12;;;;;;;1.87;1.67;;;22.50;99.90;;;22.70;54.58;100644.34;4954288;28;97562;-46
2021/07/30 05:00:38;;;;;;;2.73;1.80;;;22.50;99.90;;;22.73;54.31;100642.28;4943166;28;98691;-47
2021/07/30 05:03:04;;;;;;;2.03;1.80;;;22.50;99.90;;;22.75;54.44;100642.13;4939995;28;97219;-44
2021/07/30 05:05:30;;;;;;;1.37;1.27;;;22.50;99.90;;;22.75;54.37;100645.69;4956287;28;110686;-45
2021/07/30 05:07:56;;;;;;;1.80;1.60;;;22.60;99.90;;;22.77;54.25;100646.38;4948241;28;102821;-44
2021/07/30 05:10:22;;;;;;;2.07;1.87;;;22.60;99.90;;;22.79;54.33;100647.09;4929470;28;97768;-46
2021/07/30 05:12:48;;;;;;;3.17;2.20;;;22.60;99.90;;;22.80;53.95;100645.28;4941540;28;97980;-47
2021/07/30 05:15:14;;;;;;;2.13;1.93;;;22.60;99.90;;;22.76;54.38;100649.22;4946111;28;97635;-44
2021/07/30 05:17:40;;;;;;;2.40;2.03;;;22.60;99.90;;;22.77;54.12;100641.00;4915377;28;105857;-44
2021/07/30 05:20:08;;;;;;;3.10;2.40;;;22.60;99.90;;;22.74;53.98;100633.22;4939687;28;103354;-47
2021/07/30 05:22:34;;;;;;;2.83;2.40;;;22.50;99.90;;;22.71;49.84;100635.31;4942309;28;98532;-47
2021/07/30 05:25:00;;;;;;;4.03;2.73;;;22.50;99.20;;;22.65;52.33;100636.69;4926852;28;97094;-45
2021/07/30 05:27:26;;;;;;;1.80;1.70;;;22.40;99.50;;;22.64;54.54;100629.63;4945252;28;97223;-46
2021/07/30 05:29:51;;;;;;;3.10;2.23;;;22.30;99.90;;;22.63;54.15;100633.28;4941940;28;109295;-46
2021/07/30 05:32:17;;;;;;;2.17;1.80;;;22.30;99.90;;;22.62;54.71;100626.22;4953542;28;99484;-46
2021/07/30 05:34:43;;;;;;;1.97;1.83;;;22.30;99.90;;;22.65;54.60;100620.56;4960577;28;97533;-45
2021/07/30 05:37:11;;;;;;;4.03;2.60;;;22.40;99.90;;;22.66;54.37;100616.91;4947852;28;97396;-46
2021/07/30 05:39:37;;;;;;;2.83;2.23;;;22.40;99.90;;;22.67;54.02;100618.59;4947911;28;100421;-47
2021/07/30 05:42:04;;;;;;;1.90;1.80;;;22.40;99.90;;;22.60;54.61;100617.44;4959172;28;97986;-46
2021/07/30 05:44:29;;;;;;;2.57;2.13;;;22.30;99.90;;;22.58;54.35;100624.78;4964665;28;96910;-47
2021/07/30 05:46:55;;;;;;;4.97;2.90;;;22.30;99.90;;;22.54;52.60;100617.94;4962574;28;98088;-46
2021/07/30 05:49:21;;;;;;;2.03;1.80;;;22.20;99.90;;;22.57;54.89;100617.72;4946098;28;97965;-46
2021/07/30 05:51:47;;;;;;;2.10;1.77;;;22.30;99.90;;;22.56;54.71;100615.97;4945155;28;117531;-45
2021/07/30 05:54:12;;;;;;;1.90;1.80;;;22.30;99.90;;;22.50;54.77;100611.16;4941768;28;96995;-46
2021/07/30 05:56:38;;;;;;;2.23;2.03;;;22.20;99.90;;;22.53;54.82;100605.50;4933446;28;97073;-44
2021/07/30 05:59:04;;;;;;;2.57;2.03;;;22.20;99.90;;;22.55;54.85;100616.97;4907004;28;97837;-47
2021/07/30 06:01:30;;;;;;;1.73;1.53;;;22.30;99.90;;;22.57;54.71;100606.97;4946872;28;98967;-44
2021/07/30 06:03:56;;;;;;;1.90;1.80;;;22.40;99.90;;;22.63;54.66;100610.94;4928467;28;97441;-44
2021/07/30 06:06:22;;;;;;;1.93;1.73;;;22.50;99.90;;;22.63;54.29;100610.94;4957685;28;97535;-48
2021/07/30 06:08:47;;;;;;;2.20;1.70;;;22.50;99.90;;;22.68;54.50;100614.91;4952376;28;99421;-45
2021/07/30 06:11:13;;;;;;;1.70;1.60;;;22.60;99.90;;;22.75;54.43;100612.56;4962327;28;99045;-44
2021/07/30 06:13:39;;;;;;;1.60;1.50;;;22.60;99.90;;;22.78;54.40;100610.44;4945263;28;97627;-45
2021/07/30 06:16:10;;;;;;;4.03;2.60;;;22.60;99.90;;;22.74;52.92;100606.34;4946425;28;100444;-44
2021/07/30 06:18:38;;;;;;;2.10;1.60;;;22.60;99.20;;;22.66;54.11;100614.19;4947091;28;97807;-44
2021/07/30 06:21:05;;;;;;;2.03;1.93;;;22.40;99.90;;;22.69;54.49;100600.50;4943597;28;97349;-44
2021/07/30 06:23:32;;;;;;;1.63;1.53;;;22.50;99.90;;;22.69;54.23;100605.88;4934050;28;98521;-45
2021/07/30 06:25:57;;;;;;;2.10;2.00;;;22.50;99.90;;;22.70;54.51;100601.34;4938751;28;97525;-44
2021/07/30 06:28:23;;;;;;;1.77;1.67;;;22.60;99.90;;;22.74;54.43;100608.16;4948504;28;97287;-44
2021/07/30 06:30:49;;;;;;;3.40;2.30;;;22.60;99.90;;;22.77;54.34;100610.59;4930417;28;99520;-45
2021/07/30 06:33:17;;;;;;;2.17;1.90;;;22.70;99.90;;;22.78;54.38;100607.75;4938365;28;97334;-46
2021/07/30 06:35:43;;;;;;;2.80;2.10;;;22.70;99.90;;;22.82;54.08;100601.16;4923502;28;97491;-44
2021/07/30 06:38:09;;;;;;;2.07;1.87;;;22.70;99.90;;;22.85;54.09;100600.03;4940889;28;106603;-46
2021/07/30 06:40:34;;;;;;;2.00;1.80;;;22.70;99.90;;;22.89;53.95;100606.00;4942995;28;100272;-45
2021/07/30 06:43:00;;;;;;;1.63;1.53;;;22.70;99.90;;;22.88;53.90;100601.63;4927859;28;112586;-45
2021/07/30 06:45:26;;;;;;;1.57;1.47;;;22.80;99.90;;;22.92;53.99;100609.28;4924451;28;103302;-45
2021/07/30 06:47:52;;;;;;;2.03;1.83;;;22.80;99.90;;;22.96;53.91;100604.47;4957170;28;99550;-44
2021/07/30 06:50:18;;;;;;;2.13;1.97;;;22.80;99.90;;;22.92;53.84;100601.22;4959113;28;99911;-44
2021/07/30 06:52:43;;;;;;;3.67;2.30;;;22.90;99.90;;;22.96;52.41;100607.16;4957269;28;96862;-47
2021/07/30 06:55:10;;;;;;;2.03;1.83;;;22.90;99.10;;;22.91;53.75;100604.03;4942499;28;97849;-46
2021/07/30 06:57:35;;;;;;;2.37;2.17;;;22.70;99.90;;;22.91;53.85;100604.03;4953680;28;100118;-49
2021/07/30 07:00:01;;;;;;;1.80;1.60;;;22.70;99.90;;;22.91;53.96;100598.66;4960805;28;96921;-45
2021/07/30 07:02:27;;;;;;;1.73;1.63;;;22.80;99.90;;;22.94;53.77;100603.75;4949193;28;98908;-46
2021/07/30 07:04:53;;;;;;;3.80;3.20;;;22.80;99.90;;;22.92;51.03;100600.34;4953775;28;97319;-46
2021/07/30 07:07:19;;;;;;;2.13;1.80;;;22.80;99.60;;;22.89;53.85;100606.00;4967153;28;99414;-44
2021/07/30 07:09:44;;;;;;;2.63;1.97;;;22.70;99.90;;;22.89;54.14;100606.00;4946881;28;97306;-46
2021/07/30 07:12:10;;;;;;;4.30;2.60;;;22.70;99.90;;;22.90;53.69;100607.72;4927414;28;97654;-45
2021/07/30 07:14:36;;;;;;;2.17;1.60;;;22.70;99.90;;;22.93;53.89;100602.06;4947499;28;97317;-44
2021/07/30 07:17:02;;;;;;;2.33;1.83;;;22.80;99.90;;;22.88;53.93;100598.94;4924808;28;97603;-45
2021/07/30 07:19:28;;;;;;;2.57;1.87;;;22.70;99.90;;;22.92;53.91;100600.34;4947891;28;98881;-44
2021/07/30 07:21:54;;;;;;;1.67;1.57;;;22.80;99.90;;;22.92;53.86;100594.97;4898142;28;98381;-45
2021/07/30 07:24:20;;;;;;;2.03;1.67;;;22.80;99.90;;;22.94;53.84;100593.00;4924192;28;101272;-46
2021/07/30 07:26:46;;;;;;;4.50;2.10;;;22.90;99.90;;;22.98;53.09;100594.41;4926082;28;98807;-45
2021/07/30 07:29:12;;;;;;;1.70;1.60;;;22.90;99.90;;;22.96;53.70;100588.34;4930254;28;107254;-44
2021/07/30 07:31:37;;;;;;;1.80;1.70;;;22.90;99.90;;;22.93;53.91;100588.59;4928598;28;99017;-46
2021/07/30 07:34:03;;;;;;;1.67;1.57;;;22.90;99.90;;;22.95;53.73;100586.63;4904380;28;98943;-46
2021/07/30 07:36:29;;;;;;;2.50;1.90;;;22.90;99.90;;;22.96;53.56;100580.25;4908064;28;97260;-47
2021/07/30 07:38:56;;;;;;;4.83;3.37;;;22.90;99.90;;;22.99;50.56;100574.59;4918670;28;100626;-44
2021/07/30 07:41:21;;;;;;;2.67;2.03;;;22.90;98.60;;;22.93;52.91;100573.31;4896276;28;98627;-45
2021/07/30 07:43:47;;;;;;;5.40;2.47;;;22.80;99.90;;;22.94;53.35;100577.72;4922706;28;98856;-45
2021/07/30 07:46:13;;;;;;;4.13;3.20;;;22.70;99.90;;;22.92;50.19;100586.91;4909093;28;99494;-45
2021/07/30 07:48:40;;;;;;;6.30;3.37;;;22.70;99.30;;;22.80;48.96;100575.34;4906601;28;108106;-47
2021/07/30 07:51:06;;;;;;;3.80;2.57;;;22.60;98.60;;;22.77;53.84;100576.47;4919144;28;98128;-45
2021/07/30 07:53:32;;;;;;;3.33;1.93;;;22.60;99.90;;;22.83;53.98;100575.09;4891547;28;106771;-44
2021/07/30 07:56:06;;;;;;;2.60;2.00;;;22.60;99.90;;;22.83;54.07;100565.22;4919753;28;105681;-44
2021/07/30 07:58:33;;;;;;;1.70;1.60;;;22.70;99.90;;;22.88;53.93;100555.91;4922938;28;97931;-46
2021/07/30 08:01:00;;;;;;;13.33;2.97;;;22.70;99.90;;;22.87;50.42;100548.81;4921610;28;98466;-44
2021/07/30 08:03:26;;;;;;;6.40;2.87;;;22.70;99.40;;;22.90;50.82;100553.94;4910328;28;97835;-44
2021/07/30 08:05:52;;;;;;;2.50;1.90;;;22.70;99.30;;;22.89;52.96;100552.22;4920648;28;99513;-46
2021/07/30 08:08:18;;;;;;;7.03;3.33;;;22.70;99.90;;;22.87;51.17;100564.97;4908962;28;99629;-48
2021/07/30 08:10:44;;;;;;;2.10;2.00;;;22.70;99.50;;;22.89;53.52;100552.22;4919014;28;96972;-47
2021/07/30 08:13:10;;;;;;;6.50;3.00;;;22.70;99.90;;;22.86;52.71;100550.66;4910310;28;99736;-46
2021/07/30 08:15:40;;;;;;;7.07;3.07;;;22.60;99.80;;;22.82;53.14;100547.38;4909931;28;98081;-46
2021/07/30 08:18:06;;;;;;;7.83;3.47;;;22.60;99.90;;;22.81;49.73;100545.63;4906141;28;99932;-46
2021/07/30 08:20:31;;;;;;;3.63;2.43;;;22.60;99.20;;;22.85;53.42;100536.34;4908241;28;97725;-46
2021/07/30 08:22:57;;;;;;;6.60;2.60;;;22.60;99.90;;;22.82;51.30;100536.63;4910114;28;97686;-48
2021/07/30 08:25:23;;;;;;;5.13;2.80;;;22.60;99.60;;;22.80;48.98;100538.56;4910478;28;97713;-47
2021/07/30 08:27:49;;;;;;;8.77;3.50;;;22.60;98.70;;;22.77;49.93;100527.25;4906488;28;104495;-45
2021/07/30 08:30:15;;;;;;;5.47;2.83;;;22.50;98.80;;;22.79;49.71;100526.09;4910362;28;97360;-44
2021/07/30 08:32:40;;;;;;;5.57;3.07;;;22.60;98.70;;;22.76;51.39;100514.78;4913377;28;99702;-48
2021/07/30 08:35:07;;;;;;;4.40;2.77;;;22.50;98.50;;;22.79;52.95;100520.72;4890960;28;103031;-44
2021/07/30 08:37:34;;;;;;;6.07;2.90;;;22.60;99.90;;;22.78;48.80;100521.72;4911476;28;99142;-48
2021/07/30 08:40:01;;;;;;;8.90;2.97;;;22.60;98.50;;;22.79;49.58;100518.03;4905295;28;97893;-47
2021/07/30 08:42:34;;;;;;;2.07;1.77;;;22.60;98.60;;;22.85;53.63;100512.13;4909134;28;98473;-45
2021/07/30 08:45:00;;;;;;;3.67;2.20;;;22.60;99.90;;;22.89;53.66;100518.13;4906201;28;97595;-45
2021/07/30 08:47:26;;;;;;;4.27;2.97;;;22.70;99.90;;;22.91;49.86;100509.91;4925502;28;99608;-46
2021/07/30 08:49:52;;;;;;;5.07;2.83;;;22.70;99.10;;;22.94;50.14;100505.09;4920962;28;100757;-49
2021/07/30 08:52:20;;;;;;;3.60;2.57;;;22.80;99.10;;;22.98;50.28;100508.34;4909054;28;99684;-45
2021/07/30 08:54:52;;;;;;;3.43;2.17;;;22.90;99.40;;;23.01;49.55;100502.72;4913454;28;103551;-45
2021/07/30 08:57:19;;;;;;;4.90;2.63;;;22.90;99.20;;;23.03;52.50;100506.97;4904334;28;97530;-44
2021/07/30 08:59:45;;;;;;;3.23;2.03;;;22.90;99.90;;;23.05;53.00;100509.53;4911043;28;97379;-47
2021/07/30 09:02:11;;;;;;;5.33;2.83;;;23.00;99.90;;;23.06;48.85;100508.53;4931512;28;97404;-45
2021/07/30 09:04:38;;;;;;;4.67;2.70;;;23.00;98.00;;;23.08;48.26;100509.25;4946044;28;99242;-47
2021/07/30 09:07:04;;;;;;;4.27;2.63;;;23.00;97.20;;;23.09;46.11;100497.47;4905201;28;99042;-46
2021/07/30 09:09:32;;;;;;;2.67;2.47;;;23.00;96.20;;;23.13;48.78;100496.22;4942528;28;99328;-45
2021/07/30 09:12:00;;;;;;;3.37;2.63;;;23.00;98.20;;;23.14;47.93;100492.53;4922900;28;100373;-47
2021/07/30 09:14:41;;;;;;;3.93;2.53;;;23.00;97.30;;;23.17;50.54;100481.50;4910464;28;100343;-45
2021/07/30 09:17:07;;;;;;;5.30;2.67;;;23.00;98.60;;;23.17;46.10;100486.88;4906687;28;103577;-46
2021/07/30 09:19:34;;;;;;;3.83;2.30;;;23.10;96.30;;;23.04;48.29;100481.78;4911033;28;97469;-45
2021/07/30 09:22:09;;;;;;;3.00;2.50;;;23.00;97.20;;;23.06;48.39;100484.31;4922658;28;101073;-44
2021/07/30 09:24:41;;;;;;;3.70;2.77;;;23.00;97.20;;;23.02;46.99;100477.53;4922824;28;99290;-46
2021/07/30 09:27:11;;;;;;;4.87;2.77;;;23.00;96.70;;;23.07;49.52;100475.25;4905379;28;100723;-47
2021/07/30 09:29:39;;;;;;;8.37;2.80;;;23.00;97.10;;;23.17;46.57;100481.50;4891482;28;97002;-46
2021/07/30 09:32:17;;;;;;;5.63;3.13;;;23.10;95.90;;;23.23;47.42;100480.94;4909562;28;97604;-45
2021/07/30 09:34:51;;;;;;;3.77;3.17;;;23.20;96.00;;;23.25;47.58;100478.09;4910006;28;98826;-45
2021/07/30 09:37:26;;;;;;;3.00;2.70;;;23.20;96.50;;;23.28;48.24;100478.66;4914438;28;99183;-45
2021/07/30 09:39:53;;;;;;;4.90;2.60;;;23.20;96.70;;;23.22;47.80;100471.16;4920929;28;98747;-45
2021/07/30 09:42:31;;;;;;;4.47;2.70;;;23.20;96.50;;;23.24;46.41;100468.34;4911865;28;98287;-45
2021/07/30 09:45:03;;;;;;;5.57;2.77;;;23.20;95.60;;;23.28;47.00;100461.66;4907091;28;97707;-47
2021/07/30 09:47:34;;;;;;;4.83;3.10;;;23.20;95.30;;;23.36;47.21;100457.28;4925647;28;98273;-45
2021/07/30 09:50:04;;;;;;;4.90;2.77;;;23.30;96.20;;;23.38;48.32;100460.69;4906021;28;97631;-46
2021/07/30 09:52:41;;;;;;;6.90;2.43;;;23.30;96.50;;;23.41;47.56;100460.41;4911347;28;97772;-46
2021/07/30 09:55:09;;;;;;;6.43;2.70;;;23.40;96.30;;;23.42;47.38;100453.19;4922150;28;101832;-47
2021/07/30 09:57:37;;;;;;;3.63;2.77;;;23.40;95.90;;;23.44;47.75;100454.75;4910994;28;98908;-46
2021/07/30 10:00:10;;;;;;;3.87;2.27;;;23.40;96.80;;;23.44;49.04;100452.06;4921604;28;97878;-45
2021/07/30 10:02:38;;;;;;;5.20;2.78;;;23.40;96.90;;;23.44;47.68;100441.31;4927732;28;98384;-45
2021/07/30 10:05:07;;;;;;;4.47;2.77;;;23.40;96.30;;;23.40;48.18;100445.25;4923066;28;99420;-44
2021/07/30 10:07:36;;;;;;;3.70;2.80;;;23.40;96.50;;;23.42;47.96;100437.03;4916364;28;98716;-45
2021/07/30 10:12:52;;;;;;;5.47;2.63;;;23.40;95.20;;;23.47;47.27;100423.16;4912089;28;96871;-46